createdAt,value
2023-09-10T00:00:56.544Z,1023.2
2023-09-10T00:01:56.587Z,1023.2
2023-09-10T00:02:56.687Z,1023.2
2023-09-10T00:03:56.600Z,1023.2
2023-09-10T00:04:56.568Z,1023.2
2023-09-10T00:05:56.561Z,1023.1
2023-09-10T00:06:56.596Z,1023.2
2023-09-10T00:07:56.596Z,1023.1
2023-09-10T00:08:56.512Z,1023.1
2023-09-10T00:09:56.605Z,1023.1
2023-09-10T00:10:56.579Z,1023.1
2023-09-10T00:11:56.615Z,1023.1
2023-09-10T00:12:56.571Z,1023.0
2023-09-10T00:13:56.669Z,1023.1
2023-09-10T00:14:56.598Z,1023.1
2023-09-10T00:15:56.563Z,1023.1
2023-09-10T00:16:56.667Z,1023.2
2023-09-10T00:17:56.576Z,1023.2
2023-09-10T00:18:56.530Z,1023.2
2023-09-10T00:19:56.601Z,1023.1
2023-09-10T00:20:56.508Z,1023.2
2023-09-10T00:21:56.499Z,1023.1
2023-09-10T00:22:56.541Z,1023.1
2023-09-10T00:23:56.492Z,1023.2
2023-09-10T00:24:56.626Z,1023.1
2023-09-10T00:25:56.618Z,1023.2
2023-09-10T00:26:56.530Z,1023.1
2023-09-10T00:27:56.518Z,1023.2
2023-09-10T00:28:56.629Z,1023.1
2023-09-10T00:29:56.513Z,1023.1
2023-09-10T00:30:56.528Z,1023.1
2023-09-10T00:31:56.593Z,1023.0
2023-09-10T00:32:56.562Z,1023.0
2023-09-10T00:33:56.494Z,1023.1
2023-09-10T00:34:56.527Z,1023.0
2023-09-10T00:35:56.636Z,1023.1
2023-09-10T00:36:56.524Z,1023.1
2023-09-10T00:37:57.365Z,1023.1
2023-09-10T00:38:56.490Z,1023.0
2023-09-10T00:39:56.532Z,1023.1
2023-09-10T00:40:56.602Z,1023.0
2023-09-10T00:41:56.518Z,1023.0
2023-09-10T00:42:56.476Z,1023.0
2023-09-10T00:43:56.567Z,1023.0
2023-09-10T00:44:56.538Z,1023.1
2023-09-10T00:45:56.620Z,1022.9
2023-09-10T00:46:56.645Z,1022.9
2023-09-10T00:47:56.526Z,1023.0
2023-09-10T00:48:56.485Z,1023.0
2023-09-10T00:49:56.559Z,1022.9
2023-09-10T00:50:56.526Z,1022.9
2023-09-10T00:51:56.476Z,1023.0
2023-09-10T00:52:56.656Z,1023.0
2023-09-10T00:53:56.504Z,1023.0
2023-09-10T00:54:56.465Z,1023.1
2023-09-10T00:55:56.528Z,1023.0
2023-09-10T00:56:56.479Z,1023.0
2023-09-10T00:57:56.598Z,1022.9
2023-09-10T00:58:56.599Z,1022.9
2023-09-10T00:59:56.557Z,1023.0
2023-09-10T01:00:56.709Z,1023.0
2023-09-10T01:01:56.643Z,1023.0
2023-09-10T01:02:56.515Z,1023.1
2023-09-10T01:03:56.483Z,1022.9
2023-09-10T01:04:56.512Z,1022.9
2023-09-10T01:05:56.465Z,1023.0
2023-09-10T01:06:56.469Z,1023.0
2023-09-10T01:07:56.517Z,1022.9
2023-09-10T01:08:56.662Z,1023.0
2023-09-10T01:09:56.499Z,1022.9
2023-09-10T01:10:56.489Z,1022.9
2023-09-10T01:11:56.428Z,1022.9
2023-09-10T01:12:56.449Z,1022.9
2023-09-10T01:13:56.498Z,1023.0
2023-09-10T01:14:56.474Z,1023.0
2023-09-10T01:15:56.433Z,1023.0
2023-09-10T01:16:56.455Z,1023.0
2023-09-10T01:17:56.682Z,1023.0
2023-09-10T01:18:56.482Z,1022.9
2023-09-10T01:19:56.442Z,1023.0
2023-09-10T01:20:56.478Z,1023.0
2023-09-10T01:21:56.439Z,1023.0
2023-09-10T01:22:56.455Z,1023.0
2023-09-10T01:23:56.462Z,1023.0
2023-09-10T01:24:56.466Z,1023.0
2023-09-10T01:25:56.444Z,1023.0
2023-09-10T01:26:56.451Z,1022.9
2023-09-10T01:27:56.515Z,1022.9
2023-09-10T01:28:56.543Z,1022.9
2023-09-10T01:29:56.524Z,1022.9
2023-09-10T01:30:56.613Z,1022.9
2023-09-10T01:31:56.458Z,1022.9
2023-09-10T01:32:56.450Z,1022.8
2023-09-10T01:33:56.437Z,1022.8
2023-09-10T01:34:56.503Z,1022.9
2023-09-10T01:35:56.429Z,1022.8
2023-09-10T01:36:56.427Z,1022.8
2023-09-10T01:37:56.510Z,1022.8
2023-09-10T01:38:56.436Z,1022.8
2023-09-10T01:39:56.435Z,1022.8
2023-09-10T01:40:56.458Z,1022.8
2023-09-10T01:41:56.385Z,1022.8
2023-09-10T01:42:56.562Z,1022.9
2023-09-10T01:43:56.464Z,1022.8
2023-09-10T01:44:56.466Z,1022.8
2023-09-10T01:45:56.438Z,1022.8
2023-09-10T01:46:56.445Z,1022.8
2023-09-10T01:47:56.473Z,1022.9
2023-09-10T01:48:56.394Z,1022.8
2023-09-10T01:49:56.498Z,1022.8
2023-09-10T01:50:56.415Z,1022.9
2023-09-10T01:51:56.425Z,1022.8
2023-09-10T01:52:56.456Z,1022.7
2023-09-10T01:53:56.379Z,1022.8
2023-09-10T01:54:56.459Z,1022.7
2023-09-10T01:55:56.406Z,1022.7
2023-09-10T01:56:56.430Z,1022.7
2023-09-10T01:57:56.433Z,1022.7
2023-09-10T01:58:56.478Z,1022.7
2023-09-10T01:59:56.422Z,1022.7
2023-09-10T02:00:56.388Z,1022.7
2023-09-10T02:01:56.433Z,1022.7
2023-09-10T02:02:56.555Z,1022.7
2023-09-10T02:03:56.529Z,1022.7
2023-09-10T02:04:56.616Z,1022.7
2023-09-10T02:05:56.396Z,1022.7
2023-09-10T02:06:56.354Z,1022.7
2023-09-10T02:07:56.406Z,1022.7
2023-09-10T02:08:56.400Z,1022.7
2023-09-10T02:09:56.407Z,1022.7
2023-09-10T02:10:56.430Z,1022.8
2023-09-10T02:11:56.382Z,1022.7
2023-09-10T02:12:56.358Z,1022.7
2023-09-10T02:13:56.455Z,1022.7
2023-09-10T02:14:56.378Z,1022.7
2023-09-10T02:15:56.535Z,1022.7
2023-09-10T02:16:56.406Z,1022.7
2023-09-10T02:17:56.426Z,1022.7
2023-09-10T02:18:56.360Z,1022.8
2023-09-10T02:19:56.378Z,1022.8
2023-09-10T02:20:56.354Z,1022.8
2023-09-10T02:21:56.402Z,1022.8
2023-09-10T02:22:56.408Z,1022.7
2023-09-10T02:23:56.362Z,1022.9
2023-09-10T02:24:56.458Z,1022.8
2023-09-10T02:25:56.364Z,1022.9
2023-09-10T02:26:56.558Z,1022.8
2023-09-10T02:27:56.600Z,1022.9
2023-09-10T02:28:56.354Z,1022.9
2023-09-10T02:29:56.345Z,1022.8
2023-09-10T02:30:56.384Z,1022.9
2023-09-10T02:31:56.455Z,1022.9
2023-09-10T02:32:56.422Z,1022.8
2023-09-10T02:33:56.339Z,1022.9
2023-09-10T02:34:56.393Z,1022.8
2023-09-10T02:35:56.447Z,1022.9
2023-09-10T02:36:56.355Z,1022.9
2023-09-10T02:37:56.372Z,1022.9
2023-09-10T02:38:56.335Z,1022.9
2023-09-10T02:39:56.506Z,1022.9
2023-09-10T02:40:56.350Z,1023.0
2023-09-10T02:41:56.361Z,1022.9
2023-09-10T02:42:56.331Z,1022.9
2023-09-10T02:43:56.295Z,1022.9
2023-09-10T02:44:56.364Z,1023.0
2023-09-10T02:45:56.361Z,1023.0
2023-09-10T02:46:57.288Z,1023.0
2023-09-10T02:47:56.388Z,1023.0
2023-09-10T02:48:56.570Z,1023.0
2023-09-10T02:49:56.347Z,1022.9
2023-09-10T02:50:56.410Z,1022.9
2023-09-10T02:51:56.388Z,1023.0
2023-09-10T02:52:56.392Z,1023.0
2023-09-10T02:53:56.495Z,1023.0
2023-09-10T02:54:56.336Z,1022.9
2023-09-10T02:55:56.526Z,1022.9
2023-09-10T02:56:56.695Z,1022.9
2023-09-10T02:57:56.394Z,1022.9
2023-09-10T02:58:56.476Z,1022.9
2023-09-10T02:59:56.604Z,1022.9
2023-09-10T03:00:56.454Z,1022.9
2023-09-10T03:01:56.688Z,1022.9
2023-09-10T03:02:56.711Z,1022.9
2023-09-10T03:03:56.497Z,1022.9
2023-09-10T03:04:56.549Z,1022.9
2023-09-10T03:05:56.589Z,1022.9
2023-09-10T03:06:56.258Z,1022.9
2023-09-10T03:07:56.470Z,1022.9
2023-09-10T03:08:56.373Z,1022.9
2023-09-10T03:09:56.273Z,1022.9
2023-09-10T03:10:56.543Z,1022.9
2023-09-10T03:11:56.314Z,1022.9
2023-09-10T03:12:56.302Z,1023.0
2023-09-10T03:13:56.415Z,1023.0
2023-09-10T03:14:56.421Z,1022.9
2023-09-10T03:15:56.288Z,1022.9
2023-09-10T03:16:56.276Z,1022.9
2023-09-10T03:17:56.321Z,1022.9
2023-09-10T03:18:56.309Z,1022.9
2023-09-10T03:19:56.372Z,1022.9
2023-09-10T03:20:56.336Z,1022.9
2023-09-10T03:21:56.414Z,1022.9
2023-09-10T03:22:56.380Z,1022.8
2023-09-10T03:23:56.290Z,1022.9
2023-09-10T03:24:56.244Z,1022.8
2023-09-10T03:25:56.371Z,1022.9
2023-09-10T03:26:56.250Z,1022.9
2023-09-10T03:27:56.326Z,1022.9
2023-09-10T03:28:56.376Z,1022.9
2023-09-10T03:29:56.260Z,1023.0
2023-09-10T03:30:56.330Z,1022.9
2023-09-10T03:31:56.397Z,1022.9
2023-09-10T03:32:56.368Z,1022.9
2023-09-10T03:33:56.268Z,1022.9
2023-09-10T03:34:56.375Z,1022.9
2023-09-10T03:35:56.411Z,1022.9
2023-09-10T03:36:56.237Z,1022.9
2023-09-10T03:37:56.279Z,1022.9
2023-09-10T03:38:56.284Z,1022.9
2023-09-10T03:39:56.272Z,1022.9
2023-09-10T03:40:56.379Z,1022.9
2023-09-10T03:41:56.244Z,1022.9
2023-09-10T03:42:56.252Z,1022.9
2023-09-10T03:43:56.562Z,1022.9
2023-09-10T03:44:56.231Z,1022.9
2023-09-10T03:45:56.302Z,1022.9
2023-09-10T03:46:56.438Z,1022.9
2023-09-10T03:47:56.299Z,1022.9
2023-09-10T03:48:56.302Z,1022.9
2023-09-10T03:49:56.237Z,1022.9
2023-09-10T03:50:56.235Z,1022.9
2023-09-10T03:51:56.240Z,1022.9
2023-09-10T03:52:56.310Z,1022.9
2023-09-10T03:53:56.268Z,1022.9
2023-09-10T03:54:56.194Z,1022.9
2023-09-10T03:55:56.464Z,1022.8
2023-09-10T03:56:56.218Z,1022.9
2023-09-10T03:57:56.232Z,1022.8
2023-09-10T03:58:56.231Z,1022.8
2023-09-10T03:59:56.248Z,1022.9
2023-09-10T04:00:56.229Z,1022.8
2023-09-10T04:01:56.188Z,1022.8
2023-09-10T04:02:56.353Z,1022.8
2023-09-10T04:03:56.314Z,1022.9
2023-09-10T04:04:56.252Z,1022.9
2023-09-10T04:05:56.195Z,1022.8
2023-09-10T04:06:56.323Z,1022.8
2023-09-10T04:07:56.265Z,1022.8
2023-09-10T04:08:56.231Z,1022.7
2023-09-10T04:09:56.215Z,1022.8
2023-09-10T04:10:56.195Z,1022.8
2023-09-10T04:11:56.203Z,1022.7
2023-09-10T04:12:56.170Z,1022.8
2023-09-10T04:13:56.283Z,1022.8
2023-09-10T04:14:56.235Z,1022.8
2023-09-10T04:15:56.258Z,1022.7
2023-09-10T04:16:56.232Z,1022.8
2023-09-10T04:17:56.474Z,1022.7
2023-09-10T04:18:56.268Z,1022.8
2023-09-10T04:19:56.238Z,1022.7
2023-09-10T04:20:56.252Z,1022.7
2023-09-10T04:21:56.213Z,1022.7
2023-09-10T04:22:56.209Z,1022.7
2023-09-10T04:23:57.579Z,1022.7
2023-09-10T04:24:56.154Z,1022.7
2023-09-10T04:25:56.164Z,1022.6
2023-09-10T04:26:56.197Z,1022.7
2023-09-10T04:27:56.177Z,1022.7
2023-09-10T04:28:56.218Z,1022.7
2023-09-10T04:29:56.215Z,1022.7
2023-09-10T04:30:56.202Z,1022.7
2023-09-10T04:31:56.260Z,1022.7
2023-09-10T04:32:56.229Z,1022.8
2023-09-10T04:33:56.129Z,1022.7
2023-09-10T04:34:56.192Z,1022.6
2023-09-10T04:35:56.133Z,1022.7
2023-09-10T04:36:56.180Z,1022.7
2023-09-10T04:37:56.190Z,1022.7
2023-09-10T04:38:56.145Z,1022.8
2023-09-10T04:39:56.326Z,1022.7
2023-09-10T04:40:56.268Z,1022.7
2023-09-10T04:41:56.108Z,1022.7
2023-09-10T04:42:56.132Z,1022.7
2023-09-10T04:43:56.140Z,1022.7
2023-09-10T04:44:56.298Z,1022.7
2023-09-10T04:45:56.184Z,1022.7
2023-09-10T04:46:57.897Z,1022.7
2023-09-10T04:47:56.131Z,1022.7
2023-09-10T04:48:56.123Z,1022.7
2023-09-10T04:49:56.115Z,1022.8
2023-09-10T04:50:56.284Z,1022.8
2023-09-10T04:51:56.102Z,1022.8
2023-09-10T04:52:56.125Z,1022.7
2023-09-10T04:53:56.111Z,1022.8
2023-09-10T04:54:56.106Z,1022.8
2023-09-10T04:55:56.222Z,1022.8
2023-09-10T04:56:58.366Z,1022.9
2023-09-10T04:57:56.114Z,1022.9
2023-09-10T04:58:56.155Z,1022.9
2023-09-10T04:59:56.094Z,1022.8
2023-09-10T05:00:56.146Z,1022.8
2023-09-10T05:01:56.386Z,1022.8
2023-09-10T05:02:56.316Z,1022.9
2023-09-10T05:03:56.174Z,1022.8
2023-09-10T05:04:56.141Z,1022.8
2023-09-10T05:05:56.160Z,1022.9
2023-09-10T05:06:56.142Z,1022.9
2023-09-10T05:07:56.110Z,1022.9
2023-09-10T05:08:56.123Z,1022.8
2023-09-10T05:09:56.100Z,1022.9
2023-09-10T05:10:56.331Z,1022.8
2023-09-10T05:11:56.119Z,1022.9
2023-09-10T05:12:56.314Z,1022.8
2023-09-10T05:13:56.170Z,1022.8
2023-09-10T05:14:56.125Z,1022.9
2023-09-10T05:15:56.334Z,1022.8
2023-09-10T05:16:56.373Z,1022.9
2023-09-10T05:17:56.073Z,1022.9
2023-09-10T05:18:56.083Z,1022.9
2023-09-10T05:19:56.167Z,1022.9
2023-09-10T05:20:56.159Z,1022.9
2023-09-10T05:21:56.134Z,1022.9
2023-09-10T05:22:56.106Z,1022.9
2023-09-10T05:23:56.224Z,1022.9
2023-09-10T05:24:56.085Z,1022.9
2023-09-10T05:25:56.233Z,1023.0
2023-09-10T05:26:56.101Z,1022.9
2023-09-10T05:27:56.051Z,1022.9
2023-09-10T05:28:56.149Z,1022.9
2023-09-10T05:29:56.061Z,1023.0
2023-09-10T05:30:56.085Z,1023.0
2023-09-10T05:31:56.202Z,1023.0
2023-09-10T05:32:56.089Z,1023.0
2023-09-10T05:33:56.073Z,1022.9
2023-09-10T05:34:56.339Z,1023.0
2023-09-10T05:35:56.084Z,1022.9
2023-09-10T05:36:56.288Z,1023.0
2023-09-10T05:37:56.113Z,1023.0
2023-09-10T05:38:56.074Z,1022.9
2023-09-10T05:39:56.262Z,1023.0
2023-09-10T05:40:56.145Z,1023.0
2023-09-10T05:41:56.062Z,1022.9
2023-09-10T05:42:56.082Z,1023.0
2023-09-10T05:43:56.238Z,1023.0
2023-09-10T05:44:56.395Z,1022.9
2023-09-10T05:45:56.341Z,1023.0
2023-09-10T05:46:56.124Z,1023.0
2023-09-10T05:47:56.045Z,1023.0
2023-09-10T05:48:56.066Z,1023.0
2023-09-10T05:49:56.120Z,1023.0
2023-09-10T05:50:56.096Z,1023.0
2023-09-10T05:51:56.044Z,1023.0
2023-09-10T05:52:56.197Z,1023.0
2023-09-10T05:53:56.060Z,1023.2
2023-09-10T05:54:56.040Z,1023.0
2023-09-10T05:55:56.087Z,1023.0
2023-09-10T05:56:56.156Z,1023.0
2023-09-10T05:57:56.040Z,1023.1
2023-09-10T05:58:56.080Z,1023.0
2023-09-10T05:59:56.027Z,1023.0
2023-09-10T06:00:56.085Z,1023.1
2023-09-10T06:01:56.123Z,1023.1
2023-09-10T06:02:56.059Z,1023.1
2023-09-10T06:03:56.172Z,1023.1
2023-09-10T06:04:56.199Z,1023.1
2023-09-10T06:05:56.074Z,1023.2
2023-09-10T06:06:56.028Z,1023.1
2023-09-10T06:07:56.281Z,1023.1
2023-09-10T06:08:56.034Z,1023.1
2023-09-10T06:09:56.065Z,1023.2
2023-09-10T06:10:56.112Z,1023.1
2023-09-10T06:11:56.054Z,1023.1
2023-09-10T06:12:55.995Z,1023.1
2023-09-10T06:13:56.017Z,1023.0
2023-09-10T06:14:56.036Z,1023.1
2023-09-10T06:15:56.080Z,1023.1
2023-09-10T06:16:56.055Z,1023.0
2023-09-10T06:17:55.995Z,1023.0
2023-09-10T06:18:56.167Z,1023.0
2023-09-10T06:19:56.952Z,1023.0
2023-09-10T06:20:56.057Z,1023.1
2023-09-10T06:21:56.008Z,1023.1
2023-09-10T06:22:56.031Z,1023.0
2023-09-10T06:23:55.985Z,1023.1
2023-09-10T06:24:56.014Z,1023.0
2023-09-10T06:25:56.016Z,1023.0
2023-09-10T06:26:57.703Z,1023.0
2023-09-10T06:27:55.973Z,1023.0
2023-09-10T06:28:56.018Z,1023.1
2023-09-10T06:29:56.160Z,1023.0
2023-09-10T06:30:56.045Z,1023.1
2023-09-10T06:31:56.113Z,1023.0
2023-09-10T06:32:56.052Z,1023.0
2023-09-10T06:33:56.019Z,1023.1
2023-09-10T06:34:55.992Z,1023.0
2023-09-10T06:35:56.020Z,1023.0
2023-09-10T06:36:55.989Z,1023.1
2023-09-10T06:37:56.009Z,1023.1
2023-09-10T06:38:56.007Z,1023.0
2023-09-10T06:39:55.977Z,1023.0
2023-09-10T06:40:56.250Z,1023.0
2023-09-10T06:41:56.003Z,1023.0
2023-09-10T06:42:56.001Z,1023.1
2023-09-10T06:43:55.971Z,1023.0
2023-09-10T06:44:55.957Z,1023.1
2023-09-10T06:45:56.054Z,1023.0
2023-09-10T06:46:56.014Z,1023.0
2023-09-10T06:47:56.011Z,1023.1
2023-09-10T06:48:55.997Z,1023.0
2023-09-10T06:49:55.966Z,1023.0
2023-09-10T06:50:55.975Z,1023.0
2023-09-10T06:51:56.108Z,1023.1
2023-09-10T06:52:56.155Z,1023.1
2023-09-10T06:53:55.969Z,1023.1
2023-09-10T06:54:58.028Z,1023.1
2023-09-10T06:55:55.958Z,1023.2
2023-09-10T06:56:55.944Z,1023.2
2023-09-10T06:57:55.956Z,1023.2
2023-09-10T06:58:56.053Z,1023.2
2023-09-10T06:59:55.998Z,1023.2
2023-09-10T07:00:56.004Z,1023.2
2023-09-10T07:01:55.941Z,1023.2
2023-09-10T07:02:56.006Z,1023.3
2023-09-10T07:03:55.949Z,1023.3
2023-09-10T07:04:56.070Z,1023.2
2023-09-10T07:05:56.145Z,1023.2
2023-09-10T07:06:55.942Z,1023.2
2023-09-10T07:07:55.971Z,1023.2
2023-09-10T07:08:55.962Z,1023.2
2023-09-10T07:09:55.954Z,1023.2
2023-09-10T07:10:56.008Z,1023.2
2023-09-10T07:11:55.940Z,1023.2
2023-09-10T07:12:55.929Z,1023.2
2023-09-10T07:13:56.105Z,1023.2
2023-09-10T07:14:55.954Z,1023.2
2023-09-10T07:15:56.000Z,1023.2
2023-09-10T07:16:55.952Z,1023.2
2023-09-10T07:17:56.022Z,1023.1
2023-09-10T07:18:55.909Z,1023.2
2023-09-10T07:19:55.942Z,1023.2
2023-09-10T07:20:55.932Z,1023.2
2023-09-10T07:21:55.905Z,1023.2
2023-09-10T07:22:56.030Z,1023.3
2023-09-10T07:23:55.939Z,1023.2
2023-09-10T07:24:56.108Z,1023.2
2023-09-10T07:25:55.961Z,1023.3
2023-09-10T07:26:55.914Z,1023.2
2023-09-10T07:27:55.949Z,1023.2
2023-09-10T07:28:55.936Z,1023.3
2023-09-10T07:29:55.931Z,1023.2
2023-09-10T07:30:55.962Z,1023.3
2023-09-10T07:31:55.984Z,1023.2
2023-09-10T07:32:55.916Z,1023.3
2023-09-10T07:33:55.908Z,1023.2
2023-09-10T07:34:55.956Z,1023.2
2023-09-10T07:35:56.470Z,1023.3
2023-09-10T07:36:55.899Z,1023.2
2023-09-10T07:37:55.915Z,1023.2
2023-09-10T07:38:55.906Z,1023.2
2023-09-10T07:39:55.916Z,1023.2
2023-09-10T07:40:55.989Z,1023.2
2023-09-10T07:41:56.001Z,1023.2
2023-09-10T07:42:55.896Z,1023.2
2023-09-10T07:43:55.962Z,1023.2
2023-09-10T07:44:55.895Z,1023.3
2023-09-10T07:45:55.968Z,1023.2
2023-09-10T07:46:56.098Z,1023.2
2023-09-10T07:47:55.960Z,1023.2
2023-09-10T07:48:55.911Z,1023.2
2023-09-10T07:49:55.886Z,1023.2
2023-09-10T07:50:55.940Z,1023.2
2023-09-10T07:51:55.892Z,1023.2
2023-09-10T07:52:55.922Z,1023.2
2023-09-10T07:53:55.893Z,1023.2
2023-09-10T07:54:55.869Z,1023.2
2023-09-10T07:55:55.954Z,1023.2
2023-09-10T07:56:55.913Z,1023.2
2023-09-10T07:57:56.087Z,1023.2
2023-09-10T07:58:55.904Z,1023.2
2023-09-10T07:59:55.867Z,1023.2
2023-09-10T08:00:55.974Z,1023.3
2023-09-10T08:01:55.946Z,1023.3
2023-09-10T08:02:55.940Z,1023.3
2023-09-10T08:03:55.920Z,1023.3
2023-09-10T08:04:55.890Z,1023.3
2023-09-10T08:05:55.903Z,1023.3
2023-09-10T08:06:55.881Z,1023.3
2023-09-10T08:07:55.887Z,1023.3
2023-09-10T08:08:56.001Z,1023.2
2023-09-10T08:09:55.880Z,1023.3
2023-09-10T08:10:56.026Z,1023.3
2023-09-10T08:11:55.882Z,1023.3
2023-09-10T08:12:55.869Z,1023.3
2023-09-10T08:13:55.881Z,1023.2
2023-09-10T08:14:55.967Z,1023.2
2023-09-10T08:15:55.929Z,1023.3
2023-09-10T08:16:55.944Z,1023.3
2023-09-10T08:17:55.931Z,1023.3
2023-09-10T08:18:55.876Z,1023.3
2023-09-10T08:19:56.133Z,1023.3
2023-09-10T08:20:55.979Z,1023.3
2023-09-10T08:21:55.882Z,1023.3
2023-09-10T08:22:55.874Z,1023.3
2023-09-10T08:23:55.859Z,1023.2
2023-09-10T08:24:55.840Z,1023.3
2023-09-10T08:25:55.965Z,1023.2
2023-09-10T08:26:55.918Z,1023.2
2023-09-10T08:27:55.876Z,1023.3
2023-09-10T08:28:55.871Z,1023.2
2023-09-10T08:29:55.821Z,1023.2
2023-09-10T08:30:56.026Z,1023.3
2023-09-10T08:31:55.919Z,1023.2
2023-09-10T08:32:55.883Z,1023.1
2023-09-10T08:33:55.839Z,1023.2
2023-09-10T08:34:55.892Z,1023.2
2023-09-10T08:35:55.919Z,1023.2
2023-09-10T08:36:55.832Z,1023.2
2023-09-10T08:37:55.919Z,1023.2
2023-09-10T08:38:55.834Z,1023.2
2023-09-10T08:39:55.892Z,1023.3
2023-09-10T08:40:55.931Z,1023.2
2023-09-10T08:41:56.089Z,1023.2
2023-09-10T08:42:55.822Z,1023.3
2023-09-10T08:43:55.880Z,1023.3
2023-09-10T08:44:55.893Z,1023.2
2023-09-10T08:45:55.863Z,1023.3
2023-09-10T08:46:55.946Z,1023.2
2023-09-10T08:47:55.914Z,1023.2
2023-09-10T08:48:55.858Z,1023.2
2023-09-10T08:49:55.988Z,1023.2
2023-09-10T08:50:55.827Z,1023.3
2023-09-10T08:51:55.834Z,1023.3
2023-09-10T08:52:55.866Z,1023.2
2023-09-10T08:53:55.841Z,1023.3
2023-09-10T08:54:55.903Z,1023.3
2023-09-10T08:55:55.867Z,1023.2
2023-09-10T08:56:55.898Z,1023.2
2023-09-10T08:57:55.813Z,1023.3
2023-09-10T08:58:55.860Z,1023.2
2023-09-10T08:59:56.005Z,1023.3
2023-09-10T09:00:55.962Z,1023.2
2023-09-10T09:01:55.911Z,1023.2
2023-09-10T09:02:56.792Z,1023.2
2023-09-10T09:03:55.875Z,1023.2
2023-09-10T09:04:55.946Z,1023.2
2023-09-10T09:05:55.855Z,1023.2
2023-09-10T09:06:55.889Z,1023.2
2023-09-10T09:07:55.873Z,1023.2
2023-09-10T09:08:58.206Z,1023.2
2023-09-10T09:09:55.832Z,1023.2
2023-09-10T09:10:55.948Z,1023.2
2023-09-10T09:11:55.891Z,1023.2
2023-09-10T09:12:55.860Z,1023.2
2023-09-10T09:13:56.079Z,1023.3
2023-09-10T09:14:55.869Z,1023.2
2023-09-10T09:15:55.774Z,1023.2
2023-09-10T09:16:55.968Z,1023.3
2023-09-10T09:17:56.097Z,1023.2
2023-09-10T09:18:55.862Z,1023.2
2023-09-10T09:19:55.854Z,1023.2
2023-09-10T09:20:55.849Z,1023.2
2023-09-10T09:21:55.844Z,1023.2
2023-09-10T09:22:55.929Z,1023.2
2023-09-10T09:23:55.857Z,1023.2
2023-09-10T09:24:55.795Z,1023.2
2023-09-10T09:25:55.878Z,1023.1
2023-09-10T09:26:55.913Z,1023.1
2023-09-10T09:27:55.865Z,1023.1
2023-09-10T09:28:55.825Z,1023.1
2023-09-10T09:29:55.805Z,1023.0
2023-09-10T09:30:55.826Z,1023.1
2023-09-10T09:31:55.838Z,1023.0
2023-09-10T09:32:55.899Z,1023.1
2023-09-10T09:33:55.972Z,1023.0
2023-09-10T09:34:55.990Z,1023.0
2023-09-10T09:35:55.809Z,1023.0
2023-09-10T09:36:55.788Z,1023.0
2023-09-10T09:37:55.821Z,1023.1
2023-09-10T09:38:55.868Z,1022.9
2023-09-10T09:39:55.796Z,1023.0
2023-09-10T09:40:55.840Z,1023.0
2023-09-10T09:41:55.804Z,1023.0
2023-09-10T09:43:05.373Z,1023.0
2023-09-10T09:43:55.911Z,1023.1
2023-09-10T09:44:55.786Z,1023.0
2023-09-10T09:45:55.915Z,1023.0
2023-09-10T09:46:55.805Z,1023.0
2023-09-10T09:47:55.790Z,1023.0
2023-09-10T09:48:55.800Z,1022.9
2023-09-10T09:49:55.781Z,1022.9
2023-09-10T09:50:55.753Z,1023.0
2023-09-10T09:51:55.782Z,1023.0
2023-09-10T09:52:55.823Z,1022.9
2023-09-10T09:53:55.904Z,1022.9
2023-09-10T09:54:55.763Z,1022.9
2023-09-10T09:55:55.789Z,1022.9
2023-09-10T09:56:55.905Z,1022.9
2023-09-10T09:57:55.773Z,1022.9
2023-09-10T09:58:55.961Z,1022.8
2023-09-10T09:59:55.823Z,1022.9
2023-09-10T10:00:55.766Z,1022.8
2023-09-10T10:01:55.823Z,1022.8
2023-09-10T10:02:55.802Z,1022.8
2023-09-10T10:03:55.817Z,1022.8
2023-09-10T10:04:55.874Z,1022.9
2023-09-10T10:05:55.799Z,1022.8
2023-09-10T10:06:55.873Z,1022.8
2023-09-10T10:07:56.171Z,1022.8
2023-09-10T10:08:55.886Z,1022.8
2023-09-10T10:09:55.751Z,1022.8
2023-09-10T10:10:55.831Z,1022.9
2023-09-10T10:11:55.782Z,1022.7
2023-09-10T10:12:55.785Z,1022.9
2023-09-10T10:13:55.863Z,1022.8
2023-09-10T10:14:55.865Z,1022.7
2023-09-10T10:15:56.063Z,1022.7
2023-09-10T10:16:56.124Z,1022.8
2023-09-10T10:17:56.229Z,1022.8
2023-09-10T10:18:55.954Z,1022.8
2023-09-10T10:19:56.123Z,1022.7
2023-09-10T10:20:56.317Z,1022.7
2023-09-10T10:21:55.780Z,1022.8
2023-09-10T10:22:55.814Z,1022.7
2023-09-10T10:23:56.502Z,1022.8
2023-09-10T10:24:55.773Z,1022.8
2023-09-10T10:25:55.833Z,1022.8
2023-09-10T10:26:55.839Z,1022.8
2023-09-10T10:27:55.705Z,1022.8
2023-09-10T10:28:55.747Z,1022.7
2023-09-10T10:29:55.765Z,1022.7
2023-09-10T10:30:55.783Z,1022.6
2023-09-10T10:31:55.839Z,1022.6
2023-09-10T10:32:55.988Z,1022.7
2023-09-10T10:33:55.755Z,1022.7
2023-09-10T10:34:55.805Z,1022.6
2023-09-10T10:35:56.174Z,1022.7
2023-09-10T10:36:55.754Z,1022.6
2023-09-10T10:37:55.766Z,1022.6
2023-09-10T10:38:56.098Z,1022.6
2023-09-10T10:39:55.755Z,1022.7
2023-09-10T10:40:56.034Z,1022.6
2023-09-10T10:41:55.741Z,1022.6
2023-09-10T10:42:55.704Z,1022.6
2023-09-10T10:43:55.765Z,1022.6
2023-09-10T10:44:55.771Z,1022.5
2023-09-10T10:45:55.788Z,1022.5
2023-09-10T10:46:55.742Z,1022.5
2023-09-10T10:47:55.772Z,1022.6
2023-09-10T10:48:55.734Z,1022.6
2023-09-10T10:49:55.954Z,1022.5
2023-09-10T10:50:55.977Z,1022.4
2023-09-10T10:51:57.270Z,1022.5
2023-09-10T10:52:55.722Z,1022.4
2023-09-10T10:53:55.720Z,1022.5
2023-09-10T10:54:55.696Z,1022.4
2023-09-10T10:55:55.750Z,1022.4
2023-09-10T10:56:55.745Z,1022.4
2023-09-10T10:57:55.683Z,1022.4
2023-09-10T10:58:55.844Z,1022.3
2023-09-10T10:59:55.822Z,1022.4
2023-09-10T11:00:55.684Z,1022.4
2023-09-10T11:01:55.844Z,1022.4
2023-09-10T11:02:55.988Z,1022.3
2023-09-10T11:03:55.778Z,1022.3
2023-09-10T11:04:55.809Z,1022.4
2023-09-10T11:05:55.912Z,1022.2
2023-09-10T11:06:55.761Z,1022.3
2023-09-10T11:07:55.728Z,1022.3
2023-09-10T11:08:55.933Z,1022.3
2023-09-10T11:09:55.682Z,1022.3
2023-09-10T11:10:55.723Z,1022.3
2023-09-10T11:11:55.764Z,1022.3
2023-09-10T11:12:55.678Z,1022.2
2023-09-10T11:13:55.742Z,1022.2
2023-09-10T11:14:55.918Z,1022.2
2023-09-10T11:15:55.728Z,1022.2
2023-09-10T11:16:55.730Z,1022.2
2023-09-10T11:17:55.789Z,1022.2
2023-09-10T11:18:55.713Z,1022.2
2023-09-10T11:19:55.698Z,1022.2
2023-09-10T11:20:56.511Z,1022.3
2023-09-10T11:21:55.713Z,1022.2
2023-09-10T11:22:55.755Z,1022.3
2023-09-10T11:23:55.741Z,1022.2
2023-09-10T11:24:55.755Z,1022.3
2023-09-10T11:25:55.716Z,1022.2
2023-09-10T11:26:56.518Z,1022.3
2023-09-10T11:27:55.701Z,1022.2
2023-09-10T11:28:55.763Z,1022.2
2023-09-10T11:29:55.820Z,1022.2
2023-09-10T11:30:55.667Z,1022.2
2023-09-10T11:31:55.838Z,1022.2
2023-09-10T11:32:55.780Z,1022.2
2023-09-10T11:33:55.705Z,1022.2
2023-09-10T11:34:55.750Z,1022.1
2023-09-10T11:35:55.872Z,1022.1
2023-09-10T11:36:55.676Z,1022.2
2023-09-10T11:37:55.709Z,1022.2
2023-09-10T11:38:55.754Z,1022.1
2023-09-10T11:39:55.682Z,1022.1
2023-09-10T11:40:55.699Z,1022.2
2023-09-10T11:41:55.745Z,1022.1
2023-09-10T11:42:55.697Z,1022.2
2023-09-10T11:43:55.716Z,1022.2
2023-09-10T11:44:55.919Z,1022.0
2023-09-10T11:45:55.730Z,1022.0
2023-09-10T11:46:56.038Z,1022.0
2023-09-10T11:47:55.760Z,1022.1
2023-09-10T11:48:55.727Z,1022.0
2023-09-10T11:49:55.685Z,1022.1
2023-09-10T11:50:55.798Z,1022.0
2023-09-10T11:51:55.678Z,1022.0
2023-09-10T11:52:55.733Z,1022.0
2023-09-10T11:53:55.770Z,1022.0
2023-09-10T11:54:55.763Z,1022.0
2023-09-10T11:55:55.723Z,1021.9
2023-09-10T11:56:55.754Z,1022.0
2023-09-10T11:57:55.766Z,1022.0
2023-09-10T11:58:55.668Z,1022.0
2023-09-10T11:59:55.786Z,1021.9
2023-09-10T12:00:55.726Z,1021.9
2023-09-10T12:01:55.978Z,1021.9
2023-09-10T12:02:55.997Z,1022.0
2023-09-10T12:03:55.741Z,1022.0
2023-09-10T12:04:55.737Z,1021.9
2023-09-10T12:05:55.965Z,1021.8
2023-09-10T12:06:55.641Z,1021.8
2023-09-10T12:07:55.650Z,1021.8
2023-09-10T12:08:56.191Z,1021.9
2023-09-10T12:09:55.634Z,1021.9
2023-09-10T12:10:55.696Z,1021.9
2023-09-10T12:11:55.775Z,1021.9
2023-09-10T12:12:55.659Z,1021.8
2023-09-10T12:13:55.681Z,1021.8
2023-09-10T12:14:55.796Z,1021.9
2023-09-10T12:15:55.655Z,1021.8
2023-09-10T12:16:55.687Z,1021.8
2023-09-10T12:17:55.688Z,1021.8
2023-09-10T12:18:55.611Z,1021.8
2023-09-10T12:19:56.174Z,1021.7
2023-09-10T12:20:55.648Z,1021.8
2023-09-10T12:21:55.666Z,1021.8
2023-09-10T12:22:55.660Z,1021.8
2023-09-10T12:23:55.831Z,1021.8
2023-09-10T12:24:55.614Z,1021.8
2023-09-10T12:25:55.672Z,1021.8
2023-09-10T12:26:55.730Z,1021.8
2023-09-10T12:27:55.609Z,1021.8
2023-09-10T12:28:55.662Z,1021.7